Time;durP1;ratioP1;P1;durP2;ratioP2;P2;SDS_P1;SDS_P2;PMS_P1;PMS_P2;Temp;Humidity;BMP_temperature;BMP_pressure;BME280_temperature;BME280_humidity;BME280_pressure;Samples;Min_cycle;Max_cycle;Signal;HPM_P1;HPM_P2
2021/04/24 00:00:28;;;;;;;22.00;11.18;;;;;;;7.48;56.39;101152.41;5095826;28;20034;-63
2021/04/24 00:02:54;;;;;;;22.42;10.32;;;;;;;7.47;56.11;101166.75;5095807;28;20032;-64
2021/04/24 00:05:29;;;;;;;19.00;11.02;;;;;;;7.46;56.39;101159.53;5095811;28;20044;-63
2021/04/24 00:07:57;;;;;;;19.80;11.23;;;;;;;7.48;56.14;101157.19;5095955;28;20415;-64
2021/04/24 00:10:23;;;;;;;21.50;12.63;;;;;;;7.50;56.11;101150.03;5095683;28;20032;-64
2021/04/24 00:12:49;;;;;;;30.45;15.10;;;;;;;7.51;55.70;101157.25;5095733;28;20024;-65
2021/04/24 00:15:15;;;;;;;30.63;15.63;;;;;;;7.52;55.59;101147.69;5095674;28;20387;-63
2021/04/24 00:17:41;;;;;;;25.80;14.65;;;;;;;7.53;55.74;101154.09;5095889;28;20035;-64
2021/04/24 00:20:08;;;;;;;28.67;15.98;;;;;;;7.51;55.71;101150.84;5095753;28;20016;-63
2021/04/24 00:22:33;;;;;;;31.63;16.45;;;;;;;7.51;55.50;101151.66;5098238;28;20437;-65
2021/04/24 00:24:59;;;;;;;33.35;14.85;;;;;;;7.51;55.21;101146.06;5100146;28;20024;-63
2021/04/24 00:27:24;;;;;;;20.45;12.05;;;;;;;7.48;55.88;101140.41;5099773;28;20026;-65
2021/04/24 00:29:50;;;;;;;19.33;11.23;;;;;;;7.42;55.66;101149.06;5099533;28;20024;-63
2021/04/24 00:32:15;;;;;;;24.85;10.98;;;;;;;7.35;55.92;101136.88;5098271;28;20020;-64
2021/04/24 00:34:40;;;;;;;17.92;11.38;;;;;;;7.30;56.15;101131.56;5099598;28;20111;-63
2021/04/24 00:37:06;;;;;;;22.73;11.32;;;;;;;7.30;56.23;101146.34;5099488;28;20023;-63
2021/04/24 00:39:31;;;;;;;20.17;12.15;;;;;;;7.26;56.50;101147.44;5099471;28;20415;-63
2021/04/24 00:41:57;;;;;;;20.63;11.32;;;;;;;7.16;56.99;101134.03;5099448;28;20028;-64
2021/04/24 00:44:22;;;;;;;22.05;11.75;;;;;;;7.06;57.56;101144.56;5099311;28;20031;-64
2021/04/24 00:46:47;;;;;;;18.88;11.85;;;;;;;6.96;57.49;101142.31;5098262;28;20332;-63
2021/04/24 00:49:13;;;;;;;21.88;11.20;;;;;;;6.89;57.82;101153.31;5097878;28;20019;-64
2021/04/24 00:51:38;;;;;;;19.70;10.75;;;;;;;6.84;58.23;101156.34;5098181;28;20434;-68
2021/04/24 00:54:05;;;;;;;19.40;11.23;;;;;;;6.81;58.30;101152.28;5079718;28;20307;-66
2021/04/24 00:56:32;;;;;;;21.02;11.35;;;;;;;6.80;58.56;101153.47;5098087;28;20031;-67
2021/04/24 00:58:57;;;;;;;26.02;12.23;;;;;;;6.80;58.61;101144.28;5097800;28;20019;-67
2021/04/24 01:01:23;;;;;;;21.85;12.25;;;;;;;6.84;58.48;101145.19;5097622;28;20077;-68
2021/04/24 01:03:48;;;;;;;22.75;11.93;;;;;;;6.90;58.22;101148.53;5098241;28;20016;-65
2021/04/24 01:06:14;;;;;;;18.45;11.57;;;;;;;6.95;57.83;101140.69;5097476;28;20048;-66
2021/04/24 01:08:39;;;;;;;18.05;11.27;;;;;;;6.99;57.42;101146.38;5097800;28;20040;-67
2021/04/24 01:11:04;;;;;;;19.65;10.82;;;;;;;7.00;57.34;101143.22;5097530;28;20027;-69
2021/04/24 01:13:30;;;;;;;18.75;10.23;;;;;;;7.03;56.91;101153.66;5097749;28;20024;-67
2021/04/24 01:15:55;;;;;;;14.55;9.95;;;;;;;7.05;56.41;101151.31;5097226;28;20032;-64
2021/04/24 01:18:21;;;;;;;22.17;10.57;;;;;;;7.07;56.05;101146.19;5097614;28;20034;-68
2021/04/24 01:20:47;;;;;;;15.15;9.15;;;;;;;7.06;55.60;101149.34;5095587;28;20020;-68
2021/04/24 01:23:13;;;;;;;18.77;9.45;;;;;;;7.04;55.33;101155.28;5096553;28;20031;-68
2021/04/24 01:25:40;;;;;;;14.50;9.40;;;;;;;7.02;55.72;101151.25;5097290;28;20370;-68
2021/04/24 01:28:07;;;;;;;16.33;8.77;;;;;;;7.01;55.48;101147.63;5097428;28;20404;-68
2021/04/24 01:30:39;;;;;;;19.63;8.57;;;;;;;7.03;55.27;101142.50;5097127;28;20039;-66
2021/04/24 01:33:07;;;;;;;15.18;7.95;;;;;;;7.05;55.42;101156.91;5097101;28;20032;-67
2021/04/24 01:35:33;;;;;;;14.52;8.20;;;;;;;7.06;55.13;101144.56;5079437;28;20035;-67
2021/04/24 01:38:00;;;;;;;19.70;9.98;;;;;;;7.07;54.70;101143.38;5097284;28;20034;-68
2021/04/24 01:40:26;;;;;;;16.23;9.05;;;;;;;7.08;55.03;101145.00;5097159;28;20028;-68
2021/04/24 01:42:51;;;;;;;17.98;8.63;;;;;;;7.07;55.28;101143.38;5097149;28;20350;-67
2021/04/24 01:45:22;;;;;;;12.32;8.05;;;;;;;7.06;55.12;101144.56;5075556;28;614684;-67
2021/04/24 01:47:47;;;;;;;14.98;8.23;;;;;;;7.08;54.85;101153.41;5080229;28;20110;-67
2021/04/24 01:50:32;;;;;;;16.42;8.68;;;;;;;7.09;54.88;101146.63;5098379;28;20067;-67
2021/04/24 01:53:03;;;;;;;10.00;7.22;;;;;;;7.10;54.40;101156.66;5097940;28;20024;-66
2021/04/24 01:55:31;;;;;;;14.88;6.70;;;;;;;7.08;54.71;101152.59;5097914;28;20081;-63
2021/04/24 01:57:59;;;;;;;12.32;8.00;;;;;;;7.04;54.86;101155.28;5098134;28;20024;-64
2021/04/24 02:00:26;;;;;;;12.35;7.47;;;;;;;7.01;54.70;101156.03;5097774;28;20019;-63
2021/04/24 02:02:53;;;;;;;13.10;7.22;;;;;;;7.00;55.12;101153.59;5097941;28;20024;-63
2021/04/24 02:05:19;;;;;;;14.80;7.32;;;;;;;6.98;55.18;101156.75;5098008;28;20024;-63
2021/04/24 02:08:00;;;;;;;13.88;7.93;;;;;;;6.94;54.93;101155.84;5097844;28;20027;-63
2021/04/24 02:10:28;;;;;;;14.17;8.27;;;;;;;6.94;54.86;101155.03;5084232;28;20057;-63
2021/04/24 02:12:55;;;;;;;13.05;7.13;;;;;;;6.90;55.12;101154.13;5097434;28;20034;-65
2021/04/24 02:15:21;;;;;;;16.88;7.93;;;;;;;6.87;55.30;101150.06;5097578;28;20020;-64
2021/04/24 02:17:46;;;;;;;13.95;7.28;;;;;;;6.84;55.54;101150.75;5097825;28;20035;-63
2021/04/24 02:20:12;;;;;;;15.90;8.07;;;;;;;6.80;55.71;101155.44;5097389;28;20107;-64
2021/04/24 02:22:39;;;;;;;14.18;8.27;;;;;;;6.76;55.67;101149.78;5097713;28;20323;-64
2021/04/24 02:25:06;;;;;;;13.52;7.30;;;;;;;6.72;55.69;101143.28;5097665;28;20019;-63
2021/04/24 02:27:32;;;;;;;13.70;8.20;;;;;;;6.68;55.91;101147.97;5097191;28;20036;-63
2021/04/24 02:29:58;;;;;;;11.75;8.35;;;;;;;6.63;56.08;101141.84;5097698;28;20073;-63
2021/04/24 02:32:28;;;;;;;16.63;8.13;;;;;;;6.63;55.82;101150.22;5097326;28;20024;-63
2021/04/24 02:34:54;;;;;;;14.20;7.95;;;;;;;6.59;56.20;101147.34;5097184;28;20028;-63
2021/04/24 02:37:20;;;;;;;18.35;7.95;;;;;;;6.56;56.03;101150.00;5097513;28;20448;-63
2021/04/24 02:39:49;;;;;;;15.10;8.13;;;;;;;6.54;56.32;101153.16;5097302;28;20403;-63
2021/04/24 02:42:18;;;;;;;14.35;7.47;;;;;;;6.50;56.25;101146.66;5096735;28;20319;-64
2021/04/24 02:44:43;;;;;;;11.65;7.10;;;;;;;6.42;56.34;101154.03;5096455;28;20107;-64
2021/04/24 02:47:10;;;;;;;11.23;7.40;;;;;;;6.34;56.33;101162.56;5097061;28;20438;-65
2021/04/24 02:49:35;;;;;;;12.30;7.57;;;;;;;6.24;56.51;101161.09;5096902;28;20020;-64
2021/04/24 02:52:03;;;;;;;11.18;7.22;;;;;;;6.20;56.78;101155.41;5097115;28;20042;-63
2021/04/24 02:54:28;;;;;;;11.80;6.90;;;;;;;6.21;56.78;101159.00;5096793;28;20031;-63
2021/04/24 02:56:54;;;;;;;15.10;7.50;;;;;;;6.22;56.68;101159.81;5096830;28;20028;-63
2021/04/24 02:59:21;;;;;;;12.00;7.57;;;;;;;6.23;56.52;101153.06;5096675;28;20421;-63
2021/04/24 03:01:47;;;;;;;15.02;7.40;;;;;;;6.20;56.37;101154.59;5096936;28;20020;-63
2021/04/24 03:04:13;;;;;;;10.25;6.80;;;;;;;6.19;56.35;101152.97;5096700;28;20036;-63
2021/04/24 03:06:40;;;;;;;14.73;6.95;;;;;;;6.15;56.37;101161.25;5096733;28;20024;-67
2021/04/24 03:09:05;;;;;;;11.65;7.10;;;;;;;6.12;56.26;101161.13;5096889;28;20024;-66
2021/04/24 03:11:31;;;;;;;9.55;6.43;;;;;;;6.08;56.51;101158.25;5096252;28;20032;-66
2021/04/24 03:13:57;;;;;;;14.68;7.38;;;;;;;6.03;56.34;101160.47;5096451;28;20055;-65
2021/04/24 03:16:23;;;;;;;11.65;7.47;;;;;;;5.99;56.40;101165.94;5097122;28;20024;-65
2021/04/24 03:18:49;;;;;;;12.60;8.10;;;;;;;5.97;56.66;101164.66;5096611;28;20042;-67
2021/04/24 03:21:15;;;;;;;17.67;7.22;;;;;;;5.95;56.82;101161.41;5096306;28;20028;-66
2021/04/24 03:23:40;;;;;;;12.50;7.15;;;;;;;5.94;56.88;101159.78;5096599;28;20311;-67
2021/04/24 03:26:06;;;;;;;14.48;7.28;;;;;;;5.94;56.63;101157.00;5096357;28;20035;-67
2021/04/24 03:28:32;;;;;;;13.25;7.13;;;;;;;5.93;56.92;101160.94;5096090;28;20028;-68
2021/04/24 03:30:57;;;;;;;10.48;6.70;;;;;;;5.93;57.05;101152.56;5096432;28;20117;-66
2021/04/24 03:33:22;;;;;;;11.45;7.00;;;;;;;5.93;56.94;101158.16;5096322;28;20123;-67
2021/04/24 03:35:48;;;;;;;12.50;6.95;;;;;;;5.91;56.83;101168.88;5096179;28;20064;-65
2021/04/24 03:38:13;;;;;;;12.38;6.85;;;;;;;5.87;57.12;101154.78;5096218;28;20034;-65
2021/04/24 03:40:39;;;;;;;14.73;7.60;;;;;;;5.81;57.28;101159.78;5095898;28;20028;-68
2021/04/24 03:43:04;;;;;;;14.32;7.05;;;;;;;5.81;57.23;101162.59;5096232;28;20420;-66
2021/04/24 03:45:30;;;;;;;17.73;7.57;;;;;;;5.80;57.30;101172.13;5095895;28;20040;-66
2021/04/24 03:47:56;;;;;;;14.93;7.93;;;;;;;5.72;57.27;101169.44;5096270;28;20153;-66
2021/04/24 03:50:23;;;;;;;12.15;7.30;;;;;;;5.68;57.45;101171.31;5096170;28;20031;-65
2021/04/24 03:52:50;;;;;;;13.10;7.70;;;;;;;5.66;57.80;101176.44;5095859;28;20020;-65
2021/04/24 03:55:17;;;;;;;14.07;8.05;;;;;;;5.67;57.31;101169.69;5095655;28;20027;-66
2021/04/24 03:57:44;;;;;;;13.73;7.70;;;;;;;5.64;57.47;101176.78;5096090;28;20020;-65
2021/04/24 04:00:11;;;;;;;15.23;7.43;;;;;;;5.62;57.54;101178.28;5096189;28;20020;-66
2021/04/24 04:02:51;;;;;;;12.52;8.50;;;;;;;5.60;57.60;101170.28;5095822;28;20027;-65
2021/04/24 04:05:18;;;;;;;15.00;8.60;;;;;;;5.56;57.80;101172.16;5095909;28;20043;-66
2021/04/24 04:07:45;;;;;;;13.70;8.30;;;;;;;5.58;57.94;101173.41;5095555;28;20031;-66
2021/04/24 04:10:15;;;;;;;15.98;9.00;;;;;;;5.62;57.87;101172.72;5077767;28;20077;-67
2021/04/24 04:12:41;;;;;;;14.57;8.93;;;;;;;5.64;57.84;101182.34;5095926;28;20032;-67
2021/04/24 04:15:08;;;;;;;15.90;9.20;;;;;;;5.66;57.42;101179.22;5095618;28;20038;-68
2021/04/24 04:17:37;;;;;;;19.08;9.70;;;;;;;5.68;57.75;101188.84;5095861;28;20304;-66
2021/04/24 04:20:04;;;;;;;21.08;9.32;;;;;;;5.71;57.84;101188.16;5095684;28;20320;-67
2021/04/24 04:22:30;;;;;;;16.83;10.10;;;;;;;5.76;57.47;101193.53;5077868;28;20111;-68
2021/04/24 04:24:55;;;;;;;23.58;12.27;;;;;;;5.79;57.33;101187.22;5095420;28;20111;-66
2021/04/24 04:27:20;;;;;;;25.65;13.57;;;;;;;5.84;57.48;101192.56;5095783;28;20036;-68
2021/04/24 04:29:46;;;;;;;25.20;15.85;;;;;;;5.86;57.87;101201.41;5095452;28;20020;-67
2021/04/24 04:32:11;;;;;;;28.38;13.35;;;;;;;5.86;57.79;101201.41;5095553;28;20028;-66
2021/04/24 04:34:36;;;;;;;17.90;10.88;;;;;;;5.87;57.96;101200.22;5095579;28;20059;-67
2021/04/24 04:37:02;;;;;;;16.70;10.30;;;;;;;5.92;57.95;101203.97;5095371;28;20048;-65
2021/04/24 04:39:28;;;;;;;20.55;9.48;;;;;;;5.95;58.05;101197.69;5095496;28;20028;-69
2021/04/24 04:41:53;;;;;;;18.17;10.05;;;;;;;6.02;57.63;101198.72;5094911;28;20024;-66
2021/04/24 04:44:18;;;;;;;17.95;9.10;;;;;;;6.07;57.81;101206.88;5095467;28;20065;-69
2021/04/24 04:46:44;;;;;;;18.30;10.15;;;;;;;6.10;58.18;101211.75;5095195;28;20351;-68
2021/04/24 04:49:10;;;;;;;16.80;9.38;;;;;;;6.16;57.97;101210.31;5095414;28;20077;-70
2021/04/24 04:51:35;;;;;;;19.27;10.32;;;;;;;6.24;58.23;101205.75;5095498;28;20024;-67
2021/04/24 04:54:00;;;;;;;17.35;9.85;;;;;;;6.30;57.65;101207.16;5094807;28;20036;-69
2021/04/24 04:56:26;;;;;;;20.63;10.80;;;;;;;6.37;57.62;101209.34;5095732;28;20464;-66
2021/04/24 04:58:52;;;;;;;16.23;9.52;;;;;;;6.43;57.78;101211.50;5094802;28;20024;-69
2021/04/24 05:01:18;;;;;;;17.55;9.50;;;;;;;6.51;57.52;101216.13;5095116;28;20023;-68
2021/04/24 05:03:44;;;;;;;17.63;10.07;;;;;;;6.59;57.44;101216.34;5095300;28;20357;-67
2021/04/24 05:06:09;;;;;;;20.65;10.55;;;;;;;6.72;58.05;101220.69;5095163;28;20051;-67
2021/04/24 05:08:36;;;;;;;17.80;9.55;;;;;;;6.81;57.92;101213.78;5097199;28;20316;-67
2021/04/24 05:11:02;;;;;;;17.30;10.35;;;;;;;6.93;57.66;101215.72;5098778;28;20031;-66
2021/04/24 05:13:28;;;;;;;17.92;9.63;;;;;;;7.05;57.58;101220.41;5099051;28;20020;-64
2021/04/24 05:15:53;;;;;;;15.35;8.75;;;;;;;7.17;57.75;101216.72;5098787;28;20307;-65
2021/04/24 05:18:20;;;;;;;17.73;10.13;;;;;;;7.29;57.28;101222.22;5098643;28;20034;-64
2021/04/24 05:20:46;;;;;;;16.65;9.75;;;;;;;7.37;57.12;101224.84;5098808;28;20047;-66
2021/04/24 05:23:11;;;;;;;17.35;9.38;;;;;;;7.49;56.66;101229.53;5098541;28;20386;-68
2021/04/24 05:25:36;;;;;;;19.40;9.18;;;;;;;7.56;56.61;101221.31;5098766;28;20365;-68
2021/04/24 05:28:02;;;;;;;14.55;8.65;;;;;;;7.68;56.67;101226.03;5098015;28;20035;-68
2021/04/24 05:30:27;;;;;;;14.18;8.43;;;;;;;7.77;55.69;101231.41;5098434;28;20311;-66
2021/04/24 05:32:53;;;;;;;14.88;8.45;;;;;;;7.84;56.13;101231.56;5097531;28;20067;-68
2021/04/24 05:35:18;;;;;;;15.18;8.55;;;;;;;7.93;57.17;101226.59;5097335;28;20024;-64
2021/04/24 05:37:44;;;;;;;17.10;9.55;;;;;;;8.06;56.86;101228.09;5098620;28;20049;-64
2021/04/24 05:40:10;;;;;;;14.93;7.80;;;;;;;8.16;56.57;101230.31;5098406;28;20024;-64
2021/04/24 05:42:36;;;;;;;17.83;8.27;;;;;;;8.30;56.39;101236.25;5098308;28;20019;-64
2021/04/24 05:45:10;;;;;;;17.88;8.40;;;;;;;8.41;55.95;101228.09;5098440;28;20024;-64
2021/04/24 05:47:36;;;;;;;16.30;8.43;;;;;;;8.54;55.58;101229.59;5098109;28;20038;-64
2021/04/24 05:50:03;;;;;;;15.43;8.23;;;;;;;8.68;55.91;101221.47;5098435;28;20391;-63
2021/04/24 05:52:29;;;;;;;12.52;7.93;;;;;;;8.82;55.02;101220.13;5097915;28;20436;-63
2021/04/24 05:54:54;;;;;;;15.27;8.68;;;;;;;8.96;55.78;101221.22;5098056;28;20036;-64
2021/04/24 05:57:19;;;;;;;16.70;8.52;;;;;;;9.11;55.19;101227.09;5098252;28;20067;-63
2021/04/24 05:59:45;;;;;;;16.98;9.57;;;;;;;9.24;54.79;101222.91;5098004;28;20360;-64
2021/04/24 06:02:10;;;;;;;15.82;8.52;;;;;;;9.36;54.12;101233.97;5098158;28;20056;-63
2021/04/24 06:04:35;;;;;;;14.57;8.38;;;;;;;9.46;53.92;101236.13;5096330;28;20020;-63
2021/04/24 06:07:01;;;;;;;13.90;8.57;;;;;;;9.57;53.56;101237.13;5098055;28;20055;-63
2021/04/24 06:09:27;;;;;;;17.60;9.05;;;;;;;9.66;54.36;101242.50;5097846;28;20749;-63
2021/04/24 06:11:52;;;;;;;15.02;8.40;;;;;;;9.79;51.78;101243.91;5097711;28;20024;-63
2021/04/24 06:14:17;;;;;;;13.63;8.43;;;;;;;9.88;52.26;101243.66;5097890;28;20031;-67
2021/04/24 06:16:43;;;;;;;16.00;8.50;;;;;;;10.00;53.24;101245.44;5097613;28;20403;-62
2021/04/24 06:19:08;;;;;;;15.52;8.18;;;;;;;10.13;51.60;101247.63;5096431;28;20070;-65
2021/04/24 06:21:33;;;;;;;19.15;8.52;;;;;;;10.26;52.03;101245.44;5097341;28;20317;-64
2021/04/24 06:23:59;;;;;;;16.15;8.77;;;;;;;10.38;51.96;101244.38;5097669;28;20024;-64
2021/04/24 06:26:24;;;;;;;12.15;8.27;;;;;;;10.52;49.98;101244.59;5097381;28;20028;-64
2021/04/24 06:28:49;;;;;;;12.45;7.75;;;;;;;10.65;49.53;101245.94;5097412;28;20063;-64
2021/04/24 06:31:15;;;;;;;19.83;9.23;;;;;;;10.71;47.98;101241.63;5097764;28;20051;-65
2021/04/24 06:33:40;;;;;;;16.80;10.60;;;;;;;10.77;48.32;101240.09;5078983;28;20326;-65
2021/04/24 06:36:06;;;;;;;19.33;9.95;;;;;;;10.79;48.58;101242.53;5097225;28;20027;-64
2021/04/24 06:38:32;;;;;;;21.73;9.45;;;;;;;10.90;47.48;101251.88;5097427;28;20024;-64
2021/04/24 06:40:57;;;;;;;19.13;9.68;;;;;;;10.96;49.00;101249.56;5097144;28;20054;-64
2021/04/24 06:43:23;;;;;;;21.08;10.25;;;;;;;11.03;47.94;101247.63;5097083;28;20303;-64
2021/04/24 06:45:48;;;;;;;16.50;8.85;;;;;;;11.10;47.30;101241.25;5097017;28;20078;-67
2021/04/24 06:48:14;;;;;;;19.48;9.50;;;;;;;11.14;47.88;101245.72;5093913;28;20043;-63
2021/04/24 06:50:39;;;;;;;16.35;8.40;;;;;;;11.23;47.61;101245.44;5091486;28;20042;-64
2021/04/24 06:53:05;;;;;;;19.40;9.20;;;;;;;11.30;46.87;101245.50;5088668;28;20426;-65
2021/04/24 06:55:30;;;;;;;19.33;9.65;;;;;;;11.36;46.45;101238.31;5097201;28;20391;-65
2021/04/24 06:57:56;;;;;;;15.60;9.63;;;;;;;11.44;47.12;101239.97;5096776;28;20020;-64
2021/04/24 07:00:22;;;;;;;17.23;9.30;;;;;;;11.54;46.57;101237.66;5096640;28;20366;-64
2021/04/24 07:02:48;;;;;;;22.45;10.48;;;;;;;11.58;46.65;101236.50;5096551;28;20031;-64
2021/04/24 07:05:14;;;;;;;21.85;9.27;;;;;;;11.66;47.04;101234.53;5096702;28;20016;-73
2021/04/24 07:07:41;;;;;;;17.35;9.25;;;;;;;11.80;45.39;101234.69;5095377;28;20031;-64
2021/04/24 07:10:08;;;;;;;15.57;9.13;;;;;;;11.85;46.76;101237.16;5085137;28;20029;-63
2021/04/24 07:12:34;;;;;;;14.10;9.10;;;;;;;11.95;47.63;101233.59;5089523;28;20024;-63
2021/04/24 07:14:59;;;;;;;21.38;9.32;;;;;;;12.04;46.38;101245.31;5096192;28;20041;-64
2021/04/24 07:17:25;;;;;;;17.90;8.65;;;;;;;12.15;49.85;101244.59;5096418;28;20028;-64
2021/04/24 07:19:52;;;;;;;21.20;9.43;;;;;;;12.20;46.54;101235.78;5096418;28;20046;-64
2021/04/24 07:22:17;;;;;;;11.85;8.32;;;;;;;12.29;50.67;101228.56;5096663;28;20043;-62
2021/04/24 07:24:45;;;;;;;16.48;8.65;;;;;;;12.45;50.00;101235.91;5096362;28;20506;-63
2021/04/24 07:27:11;;;;;;;18.55;9.07;;;;;;;12.52;45.62;101236.75;5096742;28;20016;-62
2021/04/24 07:29:37;;;;;;;13.77;9.63;;;;;;;12.55;45.88;101230.31;5096135;28;20073;-63
2021/04/24 07:32:02;;;;;;;16.65;8.95;;;;;;;12.57;44.74;101229.91;5077753;28;20127;-64
2021/04/24 07:34:28;;;;;;;15.70;8.85;;;;;;;12.62;46.26;101240.84;5078325;28;20319;-63
2021/04/24 07:36:53;;;;;;;14.88;9.52;;;;;;;12.71;46.45;101234.81;5096437;28;20027;-64
2021/04/24 07:39:18;;;;;;;16.05;9.13;;;;;;;12.79;45.70;101225.16;5096010;28;20357;-63
2021/04/24 07:41:44;;;;;;;17.95;9.77;;;;;;;12.85;44.41;101235.66;5096223;28;20472;-64
2021/04/24 07:44:09;;;;;;;16.25;9.75;;;;;;;12.90;44.44;101226.03;5096063;28;20091;-64
2021/04/24 07:46:35;;;;;;;17.13;9.63;;;;;;;12.93;45.39;101228.03;5095671;28;20062;-63
2021/04/24 07:49:01;;;;;;;14.73;8.48;;;;;;;12.97;45.56;101228.88;5096082;28;20039;-63
2021/04/24 07:51:26;;;;;;;13.82;8.57;;;;;;;13.05;44.14;101236.13;5082550;28;20024;-64
2021/04/24 07:53:52;;;;;;;16.27;8.15;;;;;;;13.14;44.41;101239.38;5095262;28;20077;-66
2021/04/24 07:56:17;;;;;;;18.63;9.23;;;;;;;13.05;42.41;101233.31;5095870;28;20020;-64
2021/04/24 07:58:42;;;;;;;15.18;8.80;;;;;;;13.10;43.27;101232.09;5095913;28;20099;-64
2021/04/24 08:01:07;;;;;;;14.82;6.40;;;;;;;13.23;52.59;101224.91;5082509;28;20296;-65
2021/04/24 08:03:33;;;;;;;14.35;6.80;;;;;;;13.29;44.62;101229.75;5082154;28;20108;-66
2021/04/24 08:05:58;;;;;;;16.98;8.77;;;;;;;13.38;43.88;101225.72;5066549;28;20026;-63
2021/04/24 08:08:24;;;;;;;13.65;7.78;;;;;;;13.44;42.18;101219.31;5086322;28;20040;-64
2021/04/24 08:10:49;;;;;;;16.10;8.77;;;;;;;13.49;42.84;101220.91;5088136;28;20032;-65
2021/04/24 08:13:14;;;;;;;17.73;9.13;;;;;;;13.51;42.13;101224.13;5090549;28;20055;-63
2021/04/24 08:15:40;;;;;;;15.73;8.32;;;;;;;13.53;43.13;101221.72;5089371;28;20450;-65
2021/04/24 08:18:05;;;;;;;13.57;7.28;;;;;;;13.58;43.36;101219.28;5095293;28;20020;-61
2021/04/24 08:20:31;;;;;;;11.77;7.28;;;;;;;13.67;42.74;101221.72;5095537;28;20027;-65
2021/04/24 08:22:56;;;;;;;14.65;7.47;;;;;;;13.76;43.05;101219.31;5098850;28;20047;-69
2021/04/24 08:25:22;;;;;;;12.05;7.85;;;;;;;13.84;42.17;101226.56;5095873;28;20396;-70
2021/04/24 08:27:47;;;;;;;13.32;7.82;;;;;;;13.95;41.23;101225.72;5075751;28;20028;-68
2021/04/24 08:30:15;;;;;;;13.43;7.78;;;;;;;14.00;41.34;101228.16;5082099;28;20025;-68
2021/04/24 08:32:42;;;;;;;17.17;8.75;;;;;;;14.06;41.80;101230.16;5091215;28;20024;-59
2021/04/24 08:35:08;;;;;;;13.13;7.90;;;;;;;14.12;40.07;101224.91;5090423;28;20051;-69
2021/04/24 08:37:38;;;;;;;15.45;7.25;;;;;;;14.08;39.46;101221.28;5092528;28;20032;-65
2021/04/24 08:40:06;;;;;;;11.13;7.07;;;;;;;14.08;40.98;101218.44;5083095;28;20081;-65
2021/04/24 08:42:32;;;;;;;16.92;8.30;;;;;;;14.02;39.70;101217.25;5096430;28;20027;-64
2021/04/24 08:44:58;;;;;;;15.75;7.47;;;;;;;14.06;39.68;101212.41;5099700;28;20020;-65
2021/04/24 08:47:24;;;;;;;14.15;7.38;;;;;;;14.12;40.37;101219.25;5099117;28;20341;-65
2021/04/24 08:49:53;;;;;;;17.15;7.07;;;;;;;14.18;40.35;101218.41;5099401;28;20028;-65
2021/04/24 08:52:21;;;;;;;9.80;6.25;;;;;;;14.23;40.26;101214.34;5099357;28;20103;-69
2021/04/24 08:54:47;;;;;;;14.38;6.68;;;;;;;14.31;40.61;101215.97;5097370;28;20320;-68
2021/04/24 08:57:12;;;;;;;12.50;7.05;;;;;;;14.37;38.80;101208.66;5097351;28;20039;-69
2021/04/24 08:59:37;;;;;;;10.75;6.65;;;;;;;14.45;40.53;101210.28;5097170;28;20028;-69
2021/04/24 09:02:03;;;;;;;14.80;6.53;;;;;;;14.53;38.15;101220.38;5097270;28;20024;-69
2021/04/24 09:04:29;;;;;;;11.88;6.32;;;;;;;14.51;38.43;101211.47;5098036;28;20071;-69
2021/04/24 09:06:55;;;;;;;14.02;5.82;;;;;;;14.58;38.13;101212.69;5098658;28;20103;-70
2021/04/24 09:09:26;;;;;;;9.63;5.88;;;;;;;14.63;39.53;101209.41;5098815;28;20016;-69
2021/04/24 09:11:56;;;;;;;15.68;7.18;;;;;;;14.70;38.79;101210.19;5098790;28;20077;-65
2021/04/24 09:14:22;;;;;;;12.82;6.72;;;;;;;14.73;37.59;101205.72;5099053;28;20036;-65
2021/04/24 09:16:50;;;;;;;11.50;6.93;;;;;;;14.67;36.84;101204.53;5098783;28;20051;-65
2021/04/24 09:19:30;;;;;;;13.82;6.88;;;;;;;14.60;38.63;101201.75;5098717;28;20030;-66
2021/04/24 09:22:16;;;;;;;13.18;6.70;;;;;;;14.68;39.39;101203.31;5093368;28;20020;-65
2021/04/24 09:24:48;;;;;;;8.93;5.57;;;;;;;14.72;37.89;101199.25;5080699;28;20374;-65
2021/04/24 09:27:14;;;;;;;12.70;6.55;;;;;;;14.74;36.72;101193.19;5098694;28;20028;-65
2021/04/24 09:29:39;;;;;;;12.55;6.03;;;;;;;14.79;37.89;101189.91;5098289;28;20081;-66
2021/04/24 09:32:20;;;;;;;12.38;5.70;;;;;;;14.83;36.23;101191.53;5098578;28;20130;-65
2021/04/24 09:34:50;;;;;;;8.50;6.50;;;;;;;14.92;37.28;101185.41;5098779;28;20311;-66
2021/04/24 09:37:23;;;;;;;10.95;6.07;;;;;;;14.96;38.24;101186.19;5098432;28;20099;-67
2021/04/24 09:39:53;;;;;;;10.63;6.50;;;;;;;14.93;36.40;101184.19;5098875;28;20027;-68
2021/04/24 09:42:37;;;;;;;15.10;7.78;;;;;;;14.87;36.72;101183.03;5097895;28;20415;-67
2021/04/24 09:45:23;;;;;;;12.40;6.72;;;;;;;14.86;36.90;101175.75;5098527;28;20047;-68
2021/04/24 09:47:48;;;;;;;9.30;5.50;;;;;;;14.90;38.28;101172.91;5080234;28;20444;-66
2021/04/24 09:50:23;;;;;;;11.98;6.22;;;;;;;15.03;38.41;101179.66;5098355;28;20031;-65
2021/04/24 09:52:49;;;;;;;9.95;5.25;;;;;;;15.13;38.63;101165.47;5098016;28;20038;-65
2021/04/24 09:55:35;;;;;;;12.73;6.05;;;;;;;15.26;37.09;101167.78;5097894;28;20020;-65
2021/04/24 09:58:02;;;;;;;10.07;6.20;;;;;;;15.32;35.55;101154.78;5097815;28;20016;-66
2021/04/24 10:00:29;;;;;;;7.55;5.70;;;;;;;15.35;36.74;101159.66;5098127;28;20115;-66
2021/04/24 10:02:55;;;;;;;12.70;6.30;;;;;;;15.39;37.15;101149.09;5098011;28;20095;-66
2021/04/24 10:05:23;;;;;;;13.73;6.38;;;;;;;15.49;36.27;101151.00;5098118;28;20430;-65
2021/04/24 10:07:53;;;;;;;11.00;6.15;;;;;;;15.57;36.03;101149.72;5097900;28;20028;-66
2021/04/24 10:10:31;;;;;;;10.60;6.13;;;;;;;15.56;35.09;101144.47;5097889;28;20429;-66
2021/04/24 10:12:58;;;;;;;12.35;6.22;;;;;;;15.52;35.92;101138.84;5097422;28;20031;-65
2021/04/24 10:15:44;;;;;;;10.40;5.28;;;;;;;15.59;36.09;101130.28;5097876;28;20099;-66
2021/04/24 10:18:12;;;;;;;10.88;5.72;;;;;;;15.64;34.54;101129.06;5097496;28;20027;-65
2021/04/24 10:20:39;;;;;;;10.98;6.15;;;;;;;15.67;35.27;101129.00;5097828;28;20024;-68
2021/04/24 10:23:07;;;;;;;9.95;5.32;;;;;;;15.71;35.25;101126.94;5097639;28;20031;-65
2021/04/24 10:25:33;;;;;;;10.10;5.47;;;;;;;15.79;36.38;101118.38;5097466;28;20028;-65
2021/04/24 10:27:59;;;;;;;9.80;5.03;;;;;;;15.74;34.24;101123.25;5097465;28;20020;-65
2021/04/24 10:30:25;;;;;;;10.63;5.63;;;;;;;15.76;34.11;101123.66;5097466;28;20315;-65
2021/04/24 10:32:52;;;;;;;14.40;6.35;;;;;;;15.76;35.00;101129.31;5097388;28;20042;-65
2021/04/24 10:35:17;;;;;;;15.13;6.03;;;;;;;15.79;35.41;101119.16;5097256;28;20411;-65
2021/04/24 10:37:47;;;;;;;13.88;6.38;;;;;;;15.84;34.02;101113.03;5097733;28;20077;-67
2021/04/24 10:40:13;;;;;;;9.10;5.43;;;;;;;15.84;35.26;101120.72;5096971;28;20073;-70
2021/04/24 10:42:42;;;;;;;8.30;5.50;;;;;;;15.83;35.02;101100.09;5079539;28;20016;-69
2021/04/24 10:45:08;;;;;;;10.85;5.95;;;;;;;15.83;34.71;101108.59;5097766;28;20055;-70
2021/04/24 10:47:41;;;;;;;8.82;5.75;;;;;;;15.84;34.84;101098.84;5096853;28;20071;-69
2021/04/24 10:50:08;;;;;;;9.68;5.63;;;;;;;15.87;34.69;101091.53;5097200;28;20023;-69
2021/04/24 10:52:34;;;;;;;11.20;5.93;;;;;;;15.90;33.81;101087.88;5097039;28;20019;-69
2021/04/24 10:55:22;;;;;;;11.52;5.68;;;;;;;16.01;35.58;101085.72;5096653;28;20316;-69
2021/04/24 10:57:51;;;;;;;8.98;5.10;;;;;;;16.14;35.17;101080.28;5096993;28;20066;-70
2021/04/24 11:00:20;;;;;;;8.52;5.38;;;;;;;16.18;34.02;101081.06;5096886;28;20024;-70
2021/04/24 11:02:56;;;;;;;10.88;5.50;;;;;;;16.18;33.27;101078.22;5078811;28;20023;-69
2021/04/24 11:05:30;;;;;;;10.23;5.20;;;;;;;16.14;33.47;101078.25;5096431;28;20078;-70
2021/04/24 11:08:08;;;;;;;8.88;5.82;;;;;;;15.99;33.66;101077.63;5096719;28;20420;-69
2021/04/24 11:10:44;;;;;;;11.38;5.88;;;;;;;15.95;34.14;101070.41;5095554;28;20134;-70
2021/04/24 11:13:11;;;;;;;12.50;5.72;;;;;;;15.96;32.84;101063.50;5096623;28;20438;-70
2021/04/24 11:15:38;;;;;;;7.35;5.07;;;;;;;15.95;33.73;101067.56;5096720;28;20032;-70
2021/04/24 11:18:07;;;;;;;9.55;5.13;;;;;;;16.01;33.47;101057.38;5096552;28;20111;-69
2021/04/24 11:20:54;;;;;;;9.35;5.03;;;;;;;16.06;33.58;101068.22;5078783;28;20312;-69